sensor_id;sensor_type;location;lat;lon;timestamp;P1;durP1;ratioP1;P2;durP2;ratioP2
35606;SDS011;21729;58.392;15.656;2022-12-18T00:01:05;13.25;;;7.85;;
35606;SDS011;21729;58.392;15.656;2022-12-18T00:03:41;12.90;;;7.53;;
35606;SDS011;21729;58.392;15.656;2022-12-18T00:06:08;13.25;;;7.53;;
35606;SDS011;21729;58.392;15.656;2022-12-18T00:08:37;10.93;;;6.78;;
35606;SDS011;21729;58.392;15.656;2022-12-18T00:11:04;11.93;;;6.87;;
35606;SDS011;21729;58.392;15.656;2022-12-18T00:13:32;12.30;;;7.13;;
35606;SDS011;21729;58.392;15.656;2022-12-18T00:16:01;12.23;;;7.03;;
35606;SDS011;21729;58.392;15.656;2022-12-18T00:18:29;12.63;;;7.45;;
35606;SDS011;21729;58.392;15.656;2022-12-18T00:20:59;11.90;;;6.53;;
35606;SDS011;21729;58.392;15.656;2022-12-18T00:23:27;10.35;;;6.88;;
35606;SDS011;21729;58.392;15.656;2022-12-18T00:25:58;12.83;;;7.17;;
35606;SDS011;21729;58.392;15.656;2022-12-18T00:28:25;11.63;;;7.47;;
35606;SDS011;21729;58.392;15.656;2022-12-18T00:30:58;12.25;;;7.50;;
35606;SDS011;21729;58.392;15.656;2022-12-18T00:33:26;13.20;;;7.18;;
35606;SDS011;21729;58.392;15.656;2022-12-18T00:35:54;10.65;;;6.65;;
35606;SDS011;21729;58.392;15.656;2022-12-18T00:38:25;10.88;;;6.47;;
35606;SDS011;21729;58.392;15.656;2022-12-18T00:40:52;10.90;;;6.80;;
35606;SDS011;21729;58.392;15.656;2022-12-18T00:43:19;13.18;;;7.20;;
35606;SDS011;21729;58.392;15.656;2022-12-18T00:45:45;10.20;;;7.10;;
35606;SDS011;21729;58.392;15.656;2022-12-18T00:48:12;11.20;;;6.85;;
35606;SDS011;21729;58.392;15.656;2022-12-18T00:50:40;12.32;;;7.22;;
35606;SDS011;21729;58.392;15.656;2022-12-18T00:53:07;10.55;;;6.70;;
35606;SDS011;21729;58.392;15.656;2022-12-18T00:55:39;12.13;;;7.05;;
35606;SDS011;21729;58.392;15.656;2022-12-18T00:58:06;10.82;;;6.90;;
35606;SDS011;21729;58.392;15.656;2022-12-18T01:00:34;10.80;;;7.13;;
35606;SDS011;21729;58.392;15.656;2022-12-18T01:03:01;13.38;;;7.28;;
35606;SDS011;21729;58.392;15.656;2022-12-18T01:05:29;12.65;;;6.90;;
35606;SDS011;21729;58.392;15.656;2022-12-18T01:07:56;13.05;;;6.97;;
35606;SDS011;21729;58.392;15.656;2022-12-18T01:10:24;10.57;;;6.70;;
35606;SDS011;21729;58.392;15.656;2022-12-18T01:12:53;10.75;;;6.85;;
35606;SDS011;21729;58.392;15.656;2022-12-18T01:15:20;13.25;;;7.03;;
35606;SDS011;21729;58.392;15.656;2022-12-18T01:17:47;10.67;;;6.60;;
35606;SDS011;21729;58.392;15.656;2022-12-18T01:20:14;12.77;;;6.63;;
35606;SDS011;21729;58.392;15.656;2022-12-18T01:22:41;10.55;;;7.35;;
35606;SDS011;21729;58.392;15.656;2022-12-18T01:25:08;14.63;;;7.65;;
35606;SDS011;21729;58.392;15.656;2022-12-18T01:27:35;13.25;;;6.97;;
35606;SDS011;21729;58.392;15.656;2022-12-18T01:30:05;12.15;;;6.50;;
35606;SDS011;21729;58.392;15.656;2022-12-18T01:32:33;10.75;;;6.82;;
35606;SDS011;21729;58.392;15.656;2022-12-18T01:35:00;11.80;;;6.80;;
35606;SDS011;21729;58.392;15.656;2022-12-18T01:37:27;11.73;;;6.47;;
35606;SDS011;21729;58.392;15.656;2022-12-18T01:39:55;10.90;;;6.40;;
35606;SDS011;21729;58.392;15.656;2022-12-18T01:42:22;13.23;;;7.25;;
35606;SDS011;21729;58.392;15.656;2022-12-18T01:44:53;12.33;;;6.83;;
35606;SDS011;21729;58.392;15.656;2022-12-18T01:47:25;12.90;;;6.65;;
35606;SDS011;21729;58.392;15.656;2022-12-18T01:49:55;12.40;;;6.78;;
35606;SDS011;21729;58.392;15.656;2022-12-18T01:52:24;8.90;;;5.90;;
35606;SDS011;21729;58.392;15.656;2022-12-18T01:54:54;11.43;;;6.40;;
35606;SDS011;21729;58.392;15.656;2022-12-18T01:57:23;11.88;;;6.70;;
35606;SDS011;21729;58.392;15.656;2022-12-18T01:59:52;10.20;;;6.30;;
35606;SDS011;21729;58.392;15.656;2022-12-18T02:02:22;12.25;;;6.78;;
35606;SDS011;21729;58.392;15.656;2022-12-18T02:04:50;10.73;;;6.20;;
35606;SDS011;21729;58.392;15.656;2022-12-18T02:07:20;9.48;;;5.93;;
35606;SDS011;21729;58.392;15.656;2022-12-18T02:09:58;11.13;;;6.30;;
35606;SDS011;21729;58.392;15.656;2022-12-18T02:12:30;10.07;;;6.32;;
35606;SDS011;21729;58.392;15.656;2022-12-18T02:15:05;11.65;;;6.47;;
35606;SDS011;21729;58.392;15.656;2022-12-18T02:17:36;11.73;;;6.88;;
35606;SDS011;21729;58.392;15.656;2022-12-18T02:20:12;9.88;;;6.22;;
35606;SDS011;21729;58.392;15.656;2022-12-18T02:22:45;13.55;;;6.60;;
35606;SDS011;21729;58.392;15.656;2022-12-18T02:25:35;13.07;;;6.82;;
35606;SDS011;21729;58.392;15.656;2022-12-18T02:28:12;13.52;;;7.25;;
35606;SDS011;21729;58.392;15.656;2022-12-18T02:30:42;12.35;;;6.97;;
35606;SDS011;21729;58.392;15.656;2022-12-18T02:33:12;13.38;;;6.80;;
35606;SDS011;21729;58.392;15.656;2022-12-18T02:35:41;10.88;;;6.63;;
35606;SDS011;21729;58.392;15.656;2022-12-18T02:38:10;11.40;;;6.32;;
35606;SDS011;21729;58.392;15.656;2022-12-18T02:40:38;10.10;;;6.13;;
35606;SDS011;21729;58.392;15.656;2022-12-18T02:43:07;10.73;;;6.20;;
35606;SDS011;21729;58.392;15.656;2022-12-18T02:45:36;7.70;;;5.60;;
35606;SDS011;21729;58.392;15.656;2022-12-18T02:48:12;8.57;;;5.47;;
35606;SDS011;21729;58.392;15.656;2022-12-18T02:50:41;10.60;;;6.03;;
35606;SDS011;21729;58.392;15.656;2022-12-18T02:53:19;9.90;;;5.40;;
35606;SDS011;21729;58.392;15.656;2022-12-18T02:55:56;9.25;;;5.53;;
35606;SDS011;21729;58.392;15.656;2022-12-18T02:58:30;10.63;;;5.35;;
35606;SDS011;21729;58.392;15.656;2022-12-18T03:01:06;9.85;;;5.45;;
35606;SDS011;21729;58.392;15.656;2022-12-18T03:03:38;10.83;;;5.60;;
35606;SDS011;21729;58.392;15.656;2022-12-18T03:06:08;9.57;;;6.17;;
35606;SDS011;21729;58.392;15.656;2022-12-18T03:08:41;9.35;;;5.70;;
35606;SDS011;21729;58.392;15.656;2022-12-18T03:11:13;11.30;;;5.75;;
35606;SDS011;21729;58.392;15.656;2022-12-18T03:14:01;10.43;;;6.10;;
35606;SDS011;21729;58.392;15.656;2022-12-18T03:16:31;9.87;;;5.83;;
35606;SDS011;21729;58.392;15.656;2022-12-18T03:19:02;11.75;;;5.85;;
35606;SDS011;21729;58.392;15.656;2022-12-18T03:21:35;9.88;;;5.55;;
35606;SDS011;21729;58.392;15.656;2022-12-18T03:24:05;11.15;;;5.78;;
35606;SDS011;21729;58.392;15.656;2022-12-18T03:26:35;11.18;;;6.00;;
35606;SDS011;21729;58.392;15.656;2022-12-18T03:29:06;11.32;;;6.25;;
35606;SDS011;21729;58.392;15.656;2022-12-18T03:31:38;9.27;;;5.63;;
35606;SDS011;21729;58.392;15.656;2022-12-18T03:34:09;10.20;;;6.05;;
35606;SDS011;21729;58.392;15.656;2022-12-18T03:36:41;9.88;;;5.55;;
35606;SDS011;21729;58.392;15.656;2022-12-18T03:39:09;13.25;;;5.68;;
35606;SDS011;21729;58.392;15.656;2022-12-18T03:41:38;10.20;;;5.60;;
35606;SDS011;21729;58.392;15.656;2022-12-18T03:44:11;9.85;;;5.30;;
35606;SDS011;21729;58.392;15.656;2022-12-18T03:46:43;10.02;;;5.80;;
35606;SDS011;21729;58.392;15.656;2022-12-18T03:49:20;10.53;;;5.70;;
35606;SDS011;21729;58.392;15.656;2022-12-18T03:51:53;11.15;;;5.68;;
35606;SDS011;21729;58.392;15.656;2022-12-18T03:54:26;10.88;;;5.40;;
35606;SDS011;21729;58.392;15.656;2022-12-18T03:57:01;9.98;;;6.00;;
35606;SDS011;21729;58.392;15.656;2022-12-18T03:59:33;10.77;;;6.00;;
35606;SDS011;21729;58.392;15.656;2022-12-18T04:02:02;9.85;;;5.45;;
35606;SDS011;21729;58.392;15.656;2022-12-18T04:04:32;11.30;;;5.70;;
35606;SDS011;21729;58.392;15.656;2022-12-18T04:07:00;10.05;;;5.65;;
35606;SDS011;21729;58.392;15.656;2022-12-18T04:09:29;11.25;;;6.13;;
35606;SDS011;21729;58.392;15.656;2022-12-18T04:11:58;10.68;;;5.88;;
35606;SDS011;21729;58.392;15.656;2022-12-18T04:14:25;7.83;;;5.30;;
35606;SDS011;21729;58.392;15.656;2022-12-18T04:16:52;8.63;;;5.38;;
35606;SDS011;21729;58.392;15.656;2022-12-18T04:19:20;9.27;;;5.22;;
35606;SDS011;21729;58.392;15.656;2022-12-18T04:21:48;8.82;;;5.30;;
35606;SDS011;21729;58.392;15.656;2022-12-18T04:24:15;9.23;;;5.28;;
35606;SDS011;21729;58.392;15.656;2022-12-18T04:26:42;7.25;;;4.97;;
35606;SDS011;21729;58.392;15.656;2022-12-18T04:29:09;8.93;;;5.77;;
35606;SDS011;21729;58.392;15.656;2022-12-18T04:31:36;10.15;;;5.60;;
35606;SDS011;21729;58.392;15.656;2022-12-18T04:34:03;8.75;;;5.38;;
35606;SDS011;21729;58.392;15.656;2022-12-18T04:36:32;9.02;;;5.78;;
35606;SDS011;21729;58.392;15.656;2022-12-18T04:38:59;10.87;;;5.97;;
35606;SDS011;21729;58.392;15.656;2022-12-18T04:41:26;9.75;;;5.80;;
35606;SDS011;21729;58.392;15.656;2022-12-18T04:43:53;8.43;;;5.80;;
35606;SDS011;21729;58.392;15.656;2022-12-18T04:46:20;10.15;;;5.60;;
35606;SDS011;21729;58.392;15.656;2022-12-18T04:48:48;8.75;;;5.72;;
35606;SDS011;21729;58.392;15.656;2022-12-18T04:51:15;10.32;;;6.13;;
35606;SDS011;21729;58.392;15.656;2022-12-18T04:53:43;10.65;;;6.22;;
35606;SDS011;21729;58.392;15.656;2022-12-18T04:56:11;9.27;;;6.30;;
35606;SDS011;21729;58.392;15.656;2022-12-18T04:58:40;12.25;;;5.70;;
35606;SDS011;21729;58.392;15.656;2022-12-18T05:01:09;10.10;;;6.40;;
35606;SDS011;21729;58.392;15.656;2022-12-18T05:03:37;9.80;;;6.53;;
35606;SDS011;21729;58.392;15.656;2022-12-18T05:06:05;9.23;;;6.30;;
35606;SDS011;21729;58.392;15.656;2022-12-18T05:08:33;11.52;;;6.38;;
35606;SDS011;21729;58.392;15.656;2022-12-18T05:11:02;11.10;;;6.72;;
35606;SDS011;21729;58.392;15.656;2022-12-18T05:13:31;11.75;;;7.00;;
35606;SDS011;21729;58.392;15.656;2022-12-18T05:15:58;11.90;;;6.83;;
35606;SDS011;21729;58.392;15.656;2022-12-18T05:18:26;13.02;;;6.93;;
35606;SDS011;21729;58.392;15.656;2022-12-18T05:20:53;11.13;;;6.38;;
35606;SDS011;21729;58.392;15.656;2022-12-18T05:23:22;13.75;;;7.05;;
35606;SDS011;21729;58.392;15.656;2022-12-18T05:25:50;11.88;;;7.05;;
35606;SDS011;21729;58.392;15.656;2022-12-18T05:28:19;12.63;;;7.22;;
35606;SDS011;21729;58.392;15.656;2022-12-18T05:30:48;12.45;;;7.53;;
35606;SDS011;21729;58.392;15.656;2022-12-18T05:33:16;12.07;;;7.60;;
35606;SDS011;21729;58.392;15.656;2022-12-18T05:35:43;12.82;;;7.38;;
35606;SDS011;21729;58.392;15.656;2022-12-18T05:38:10;13.68;;;7.65;;
35606;SDS011;21729;58.392;15.656;2022-12-18T05:40:41;13.75;;;7.60;;
35606;SDS011;21729;58.392;15.656;2022-12-18T05:43:09;13.18;;;7.57;;
35606;SDS011;21729;58.392;15.656;2022-12-18T05:45:38;13.73;;;7.72;;
35606;SDS011;21729;58.392;15.656;2022-12-18T05:48:05;14.07;;;7.72;;
35606;SDS011;21729;58.392;15.656;2022-12-18T05:50:34;12.73;;;7.63;;
35606;SDS011;21729;58.392;15.656;2022-12-18T05:53:01;15.50;;;9.17;;
35606;SDS011;21729;58.392;15.656;2022-12-18T05:55:28;13.13;;;7.80;;
35606;SDS011;21729;58.392;15.656;2022-12-18T05:57:58;12.75;;;7.53;;
35606;SDS011;21729;58.392;15.656;2022-12-18T06:00:25;11.93;;;7.40;;
35606;SDS011;21729;58.392;15.656;2022-12-18T06:02:54;12.80;;;7.78;;
35606;SDS011;21729;58.392;15.656;2022-12-18T06:05:21;12.87;;;7.77;;
35606;SDS011;21729;58.392;15.656;2022-12-18T06:07:48;12.20;;;7.30;;
35606;SDS011;21729;58.392;15.656;2022-12-18T06:10:15;12.13;;;8.10;;
35606;SDS011;21729;58.392;15.656;2022-12-18T06:12:42;13.55;;;7.60;;
35606;SDS011;21729;58.392;15.656;2022-12-18T06:15:10;13.77;;;8.30;;
35606;SDS011;21729;58.392;15.656;2022-12-18T06:17:37;12.38;;;7.22;;
35606;SDS011;21729;58.392;15.656;2022-12-18T06:20:06;11.48;;;7.38;;
35606;SDS011;21729;58.392;15.656;2022-12-18T06:22:34;13.13;;;7.45;;
35606;SDS011;21729;58.392;15.656;2022-12-18T06:25:01;10.70;;;7.00;;
35606;SDS011;21729;58.392;15.656;2022-12-18T06:27:28;10.95;;;6.93;;
35606;SDS011;21729;58.392;15.656;2022-12-18T06:29:55;10.45;;;7.03;;
35606;SDS011;21729;58.392;15.656;2022-12-18T06:32:22;10.00;;;6.33;;
35606;SDS011;21729;58.392;15.656;2022-12-18T06:34:49;10.00;;;5.77;;
35606;SDS011;21729;58.392;15.656;2022-12-18T06:37:18;9.37;;;6.00;;
35606;SDS011;21729;58.392;15.656;2022-12-18T06:39:45;9.82;;;5.80;;
35606;SDS011;21729;58.392;15.656;2022-12-18T06:42:12;9.10;;;5.30;;
35606;SDS011;21729;58.392;15.656;2022-12-18T06:44:39;9.87;;;6.10;;
35606;SDS011;21729;58.392;15.656;2022-12-18T06:47:07;8.90;;;5.60;;
35606;SDS011;21729;58.392;15.656;2022-12-18T06:49:34;8.68;;;5.57;;
35606;SDS011;21729;58.392;15.656;2022-12-18T06:52:01;7.65;;;5.15;;
35606;SDS011;21729;58.392;15.656;2022-12-18T06:54:29;8.77;;;5.85;;
35606;SDS011;21729;58.392;15.656;2022-12-18T06:56:57;6.60;;;5.00;;
35606;SDS011;21729;58.392;15.656;2022-12-18T06:59:24;7.07;;;5.43;;
35606;SDS011;21729;58.392;15.656;2022-12-18T07:01:51;8.50;;;5.82;;
35606;SDS011;21729;58.392;15.656;2022-12-18T07:04:18;8.35;;;5.70;;
35606;SDS011;21729;58.392;15.656;2022-12-18T07:06:45;9.70;;;6.15;;
35606;SDS011;21729;58.392;15.656;2022-12-18T07:09:13;7.47;;;5.80;;
35606;SDS011;21729;58.392;15.656;2022-12-18T07:11:41;9.50;;;6.20;;
35606;SDS011;21729;58.392;15.656;2022-12-18T07:14:08;9.13;;;6.35;;
35606;SDS011;21729;58.392;15.656;2022-12-18T07:16:35;10.43;;;6.00;;
35606;SDS011;21729;58.392;15.656;2022-12-18T07:19:02;8.55;;;5.55;;
35606;SDS011;21729;58.392;15.656;2022-12-18T07:21:29;8.77;;;5.47;;
35606;SDS011;21729;58.392;15.656;2022-12-18T07:23:56;8.88;;;5.75;;
35606;SDS011;21729;58.392;15.656;2022-12-18T07:26:24;9.93;;;5.70;;
35606;SDS011;21729;58.392;15.656;2022-12-18T07:28:54;9.40;;;5.80;;
35606;SDS011;21729;58.392;15.656;2022-12-18T07:31:22;9.10;;;6.18;;
35606;SDS011;21729;58.392;15.656;2022-12-18T07:33:50;9.63;;;5.95;;
35606;SDS011;21729;58.392;15.656;2022-12-18T07:36:18;10.75;;;5.82;;
35606;SDS011;21729;58.392;15.656;2022-12-18T07:38:48;10.85;;;6.78;;
35606;SDS011;21729;58.392;15.656;2022-12-18T07:41:17;9.43;;;6.13;;
35606;SDS011;21729;58.392;15.656;2022-12-18T07:43:44;9.57;;;6.18;;
35606;SDS011;21729;58.392;15.656;2022-12-18T07:46:14;10.60;;;6.60;;
35606;SDS011;21729;58.392;15.656;2022-12-18T07:48:41;9.73;;;6.57;;
35606;SDS011;21729;58.392;15.656;2022-12-18T07:51:09;8.35;;;6.03;;
35606;SDS011;21729;58.392;15.656;2022-12-18T07:53:39;10.60;;;6.22;;
35606;SDS011;21729;58.392;15.656;2022-12-18T07:56:07;9.10;;;6.10;;
35606;SDS011;21729;58.392;15.656;2022-12-18T07:58:36;10.52;;;6.45;;
35606;SDS011;21729;58.392;15.656;2022-12-18T08:01:04;10.77;;;6.60;;
35606;SDS011;21729;58.392;15.656;2022-12-18T08:03:33;12.93;;;7.20;;
35606;SDS011;21729;58.392;15.656;2022-12-18T08:06:01;11.48;;;6.60;;
35606;SDS011;21729;58.392;15.656;2022-12-18T08:08:29;10.60;;;6.82;;
35606;SDS011;21729;58.392;15.656;2022-12-18T08:10:57;10.70;;;6.60;;
35606;SDS011;21729;58.392;15.656;2022-12-18T08:13:24;11.23;;;6.65;;
35606;SDS011;21729;58.392;15.656;2022-12-18T08:15:57;12.25;;;7.40;;
35606;SDS011;21729;58.392;15.656;2022-12-18T08:18:25;11.77;;;7.07;;
35606;SDS011;21729;58.392;15.656;2022-12-18T08:20:54;10.02;;;6.78;;
35606;SDS011;21729;58.392;15.656;2022-12-18T08:23:21;10.20;;;6.40;;
35606;SDS011;21729;58.392;15.656;2022-12-18T08:25:48;10.57;;;5.90;;
35606;SDS011;21729;58.392;15.656;2022-12-18T08:28:16;9.52;;;5.93;;
35606;SDS011;21729;58.392;15.656;2022-12-18T08:30:43;11.50;;;7.07;;
35606;SDS011;21729;58.392;15.656;2022-12-18T08:33:10;10.90;;;6.53;;
35606;SDS011;21729;58.392;15.656;2022-12-18T08:35:37;10.90;;;6.35;;
35606;SDS011;21729;58.392;15.656;2022-12-18T08:38:06;12.30;;;6.85;;
35606;SDS011;21729;58.392;15.656;2022-12-18T08:40:33;11.90;;;6.80;;
35606;SDS011;21729;58.392;15.656;2022-12-18T08:43:00;10.25;;;6.63;;
35606;SDS011;21729;58.392;15.656;2022-12-18T08:45:45;10.95;;;6.53;;
35606;SDS011;21729;58.392;15.656;2022-12-18T08:48:12;11.55;;;6.32;;
35606;SDS011;21729;58.392;15.656;2022-12-18T08:50:39;10.50;;;6.38;;
35606;SDS011;21729;58.392;15.656;2022-12-18T08:53:08;11.05;;;6.47;;
35606;SDS011;21729;58.392;15.656;2022-12-18T08:55:35;10.82;;;6.43;;
35606;SDS011;21729;58.392;15.656;2022-12-18T08:58:02;11.57;;;6.80;;
35606;SDS011;21729;58.392;15.656;2022-12-18T09:00:29;11.13;;;6.38;;
35606;SDS011;21729;58.392;15.656;2022-12-18T09:02:59;13.15;;;6.68;;
35606;SDS011;21729;58.392;15.656;2022-12-18T09:05:27;10.83;;;6.37;;
35606;SDS011;21729;58.392;15.656;2022-12-18T09:07:54;9.70;;;6.40;;
35606;SDS011;21729;58.392;15.656;2022-12-18T09:10:23;11.48;;;6.35;;
35606;SDS011;21729;58.392;15.656;2022-12-18T09:12:50;13.03;;;6.67;;
35606;SDS011;21729;58.392;15.656;2022-12-18T09:15:17;10.15;;;6.13;;
35606;SDS011;21729;58.392;15.656;2022-12-18T09:17:44;9.70;;;6.25;;
35606;SDS011;21729;58.392;15.656;2022-12-18T09:20:11;10.00;;;5.43;;
35606;SDS011;21729;58.392;15.656;2022-12-18T09:22:38;12.02;;;6.95;;
35606;SDS011;21729;58.392;15.656;2022-12-18T09:25:06;11.77;;;7.22;;
35606;SDS011;21729;58.392;15.656;2022-12-18T09:27:35;11.95;;;6.03;;
35606;SDS011;21729;58.392;15.656;2022-12-18T09:30:02;13.00;;;6.72;;
35606;SDS011;21729;58.392;15.656;2022-12-18T09:32:30;11.03;;;6.77;;
35606;SDS011;21729;58.392;15.656;2022-12-18T09:34:57;12.82;;;6.82;;
35606;SDS011;21729;58.392;15.656;2022-12-18T09:37:24;11.95;;;6.47;;
35606;SDS011;21729;58.392;15.656;2022-12-18T09:39:51;11.52;;;6.15;;
35606;SDS011;21729;58.392;15.656;2022-12-18T09:42:20;10.40;;;6.03;;
35606;SDS011;21729;58.392;15.656;2022-12-18T09:44:50;10.15;;;5.85;;
35606;SDS011;21729;58.392;15.656;2022-12-18T09:47:19;9.48;;;5.97;;
35606;SDS011;21729;58.392;15.656;2022-12-18T09:49:52;10.00;;;6.43;;
35606;SDS011;21729;58.392;15.656;2022-12-18T09:52:23;10.53;;;6.30;;
35606;SDS011;21729;58.392;15.656;2022-12-18T09:54:55;12.60;;;6.55;;
35606;SDS011;21729;58.392;15.656;2022-12-18T09:57:26;9.18;;;6.30;;
35606;SDS011;21729;58.392;15.656;2022-12-18T09:59:59;10.65;;;6.40;;
35606;SDS011;21729;58.392;15.656;2022-12-18T10:02:32;10.05;;;6.20;;
35606;SDS011;21729;58.392;15.656;2022-12-18T10:05:04;7.45;;;5.25;;
35606;SDS011;21729;58.392;15.656;2022-12-18T10:07:37;11.30;;;6.15;;
35606;SDS011;21729;58.392;15.656;2022-12-18T10:10:14;9.43;;;5.67;;
35606;SDS011;21729;58.392;15.656;2022-12-18T10:12:51;9.32;;;5.70;;
35606;SDS011;21729;58.392;15.656;2022-12-18T10:15:29;10.93;;;6.22;;
35606;SDS011;21729;58.392;15.656;2022-12-18T10:18:04;8.75;;;5.57;;
35606;SDS011;21729;58.392;15.656;2022-12-18T10:20:43;7.70;;;5.50;;
35606;SDS011;21729;58.392;15.656;2022-12-18T10:23:15;8.63;;;5.30;;
35606;SDS011;21729;58.392;15.656;2022-12-18T10:25:50;9.25;;;5.47;;
35606;SDS011;21729;58.392;15.656;2022-12-18T10:28:21;8.48;;;4.80;;
35606;SDS011;21729;58.392;15.656;2022-12-18T10:30:52;8.90;;;5.50;;
35606;SDS011;21729;58.392;15.656;2022-12-18T10:33:20;8.93;;;6.15;;
35606;SDS011;21729;58.392;15.656;2022-12-18T10:35:49;9.32;;;5.20;;
35606;SDS011;21729;58.392;15.656;2022-12-18T10:38:21;7.65;;;5.20;;
35606;SDS011;21729;58.392;15.656;2022-12-18T10:40:53;8.98;;;5.38;;
35606;SDS011;21729;58.392;15.656;2022-12-18T10:43:23;8.98;;;5.40;;
35606;SDS011;21729;58.392;15.656;2022-12-18T10:46:04;10.27;;;5.80;;
35606;SDS011;21729;58.392;15.656;2022-12-18T10:48:40;8.70;;;5.40;;
35606;SDS011;21729;58.392;15.656;2022-12-18T10:51:20;6.97;;;4.93;;
35606;SDS011;21729;58.392;15.656;2022-12-18T10:53:51;8.53;;;5.23;;
35606;SDS011;21729;58.392;15.656;2022-12-18T10:56:21;8.25;;;5.03;;
35606;SDS011;21729;58.392;15.656;2022-12-18T10:58:55;8.80;;;5.20;;
35606;SDS011;21729;58.392;15.656;2022-12-18T11:01:25;7.25;;;4.95;;
35606;SDS011;21729;58.392;15.656;2022-12-18T11:04:00;5.30;;;4.30;;
35606;SDS011;21729;58.392;15.656;2022-12-18T11:06:28;9.23;;;4.70;;
35606;SDS011;21729;58.392;15.656;2022-12-18T11:08:59;8.07;;;4.50;;
35606;SDS011;21729;58.392;15.656;2022-12-18T11:11:27;8.10;;;4.82;;
35606;SDS011;21729;58.392;15.656;2022-12-18T11:13:57;9.60;;;6.00;;
35606;SDS011;21729;58.392;15.656;2022-12-18T11:16:29;10.75;;;6.00;;
35606;SDS011;21729;58.392;15.656;2022-12-18T11:19:12;7.88;;;4.68;;
35606;SDS011;21729;58.392;15.656;2022-12-18T11:21:46;8.60;;;4.50;;
35606;SDS011;21729;58.392;15.656;2022-12-18T11:24:17;8.25;;;5.35;;
35606;SDS011;21729;58.392;15.656;2022-12-18T11:26:48;7.10;;;4.50;;
35606;SDS011;21729;58.392;15.656;2022-12-18T11:29:16;8.45;;;4.72;;
35606;SDS011;21729;58.392;15.656;2022-12-18T11:31:46;8.90;;;5.32;;
35606;SDS011;21729;58.392;15.656;2022-12-18T11:34:14;7.80;;;4.40;;
35606;SDS011;21729;58.392;15.656;2022-12-18T11:36:46;7.88;;;4.40;;
35606;SDS011;21729;58.392;15.656;2022-12-18T11:39:15;7.97;;;4.50;;
35606;SDS011;21729;58.392;15.656;2022-12-18T11:41:47;6.22;;;4.75;;
35606;SDS011;21729;58.392;15.656;2022-12-18T11:44:39;7.57;;;5.00;;
35606;SDS011;21729;58.392;15.656;2022-12-18T11:47:15;6.22;;;4.60;;
35606;SDS011;21729;58.392;15.656;2022-12-18T11:49:49;9.05;;;5.47;;
35606;SDS011;21729;58.392;15.656;2022-12-18T11:52:17;9.23;;;5.40;;
35606;SDS011;21729;58.392;15.656;2022-12-18T11:54:46;6.88;;;4.68;;
35606;SDS011;21729;58.392;15.656;2022-12-18T11:57:16;5.53;;;3.80;;
35606;SDS011;21729;58.392;15.656;2022-12-18T11:59:53;5.90;;;3.50;;
35606;SDS011;21729;58.392;15.656;2022-12-18T12:02:33;5.57;;;3.53;;
35606;SDS011;21729;58.392;15.656;2022-12-18T12:05:31;5.10;;;3.35;;
35606;SDS011;21729;58.392;15.656;2022-12-18T12:08:06;4.82;;;3.45;;
35606;SDS011;21729;58.392;15.656;2022-12-18T12:10:43;4.70;;;3.40;;
35606;SDS011;21729;58.392;15.656;2022-12-18T12:13:22;5.38;;;3.25;;
35606;SDS011;21729;58.392;15.656;2022-12-18T12:16:06;4.95;;;3.38;;
35606;SDS011;21729;58.392;15.656;2022-12-18T12:18:46;4.88;;;3.67;;
35606;SDS011;21729;58.392;15.656;2022-12-18T12:21:27;5.40;;;3.33;;
35606;SDS011;21729;58.392;15.656;2022-12-18T12:24:03;7.00;;;3.33;;
35606;SDS011;21729;58.392;15.656;2022-12-18T12:26:38;4.40;;;3.10;;
35606;SDS011;21729;58.392;15.656;2022-12-18T12:29:18;4.32;;;3.22;;
35606;SDS011;21729;58.392;15.656;2022-12-18T12:32:00;3.65;;;2.63;;
35606;SDS011;21729;58.392;15.656;2022-12-18T12:34:37;4.55;;;2.60;;
35606;SDS011;21729;58.392;15.656;2022-12-18T12:37:14;5.78;;;3.33;;
35606;SDS011;21729;58.392;15.656;2022-12-18T12:39:52;4.45;;;2.67;;
35606;SDS011;21729;58.392;15.656;2022-12-18T12:42:23;4.22;;;2.80;;
35606;SDS011;21729;58.392;15.656;2022-12-18T12:45:16;4.30;;;2.90;;
35606;SDS011;21729;58.392;15.656;2022-12-18T12:47:47;4.90;;;2.95;;
35606;SDS011;21729;58.392;15.656;2022-12-18T12:50:19;4.97;;;2.88;;
35606;SDS011;21729;58.392;15.656;2022-12-18T12:52:48;3.80;;;2.90;;
35606;SDS011;21729;58.392;15.656;2022-12-18T12:55:22;4.40;;;2.65;;
35606;SDS011;21729;58.392;15.656;2022-12-18T12:57:54;4.35;;;2.80;;
35606;SDS011;21729;58.392;15.656;2022-12-18T13:00:26;4.03;;;2.70;;
35606;SDS011;21729;58.392;15.656;2022-12-18T13:03:03;4.97;;;3.15;;
35606;SDS011;21729;58.392;15.656;2022-12-18T13:05:40;4.30;;;2.63;;
35606;SDS011;21729;58.392;15.656;2022-12-18T13:08:22;4.57;;;3.25;;
35606;SDS011;21729;58.392;15.656;2022-12-18T13:10:51;3.83;;;2.80;;
35606;SDS011;21729;58.392;15.656;2022-12-18T13:13:49;5.65;;;3.97;;
35606;SDS011;21729;58.392;15.656;2022-12-18T13:16:18;6.82;;;2.97;;
35606;SDS011;21729;58.392;15.656;2022-12-18T13:18:49;4.90;;;3.00;;
35606;SDS011;21729;58.392;15.656;2022-12-18T13:21:22;6.25;;;3.15;;
35606;SDS011;21729;58.392;15.656;2022-12-18T13:23:52;6.87;;;3.60;;
35606;SDS011;21729;58.392;15.656;2022-12-18T13:26:33;5.97;;;3.72;;
35606;SDS011;21729;58.392;15.656;2022-12-18T13:29:01;5.28;;;3.35;;
35606;SDS011;21729;58.392;15.656;2022-12-18T13:34:35;6.80;;;3.38;;
35606;SDS011;21729;58.392;15.656;2022-12-18T13:43:35;7.10;;;3.23;;
35606;SDS011;21729;58.392;15.656;2022-12-18T13:46:20;7.03;;;3.30;;
35606;SDS011;21729;58.392;15.656;2022-12-18T13:48:57;6.05;;;2.85;;
35606;SDS011;21729;58.392;15.656;2022-12-18T13:51:28;7.38;;;4.00;;
35606;SDS011;21729;58.392;15.656;2022-12-18T13:53:59;5.32;;;3.30;;
35606;SDS011;21729;58.392;15.656;2022-12-18T13:56:28;6.93;;;4.53;;
35606;SDS011;21729;58.392;15.656;2022-12-18T13:59:10;6.93;;;3.28;;
35606;SDS011;21729;58.392;15.656;2022-12-18T14:01:43;5.50;;;2.60;;
35606;SDS011;21729;58.392;15.656;2022-12-18T14:04:16;3.95;;;2.70;;
35606;SDS011;21729;58.392;15.656;2022-12-18T14:06:46;5.05;;;3.15;;
35606;SDS011;21729;58.392;15.656;2022-12-18T14:09:16;6.20;;;3.20;;
35606;SDS011;21729;58.392;15.656;2022-12-18T14:11:47;5.68;;;2.75;;
35606;SDS011;21729;58.392;15.656;2022-12-18T14:14:15;7.68;;;2.95;;
35606;SDS011;21729;58.392;15.656;2022-12-18T14:16:44;5.82;;;2.90;;
35606;SDS011;21729;58.392;15.656;2022-12-18T14:19:14;5.97;;;2.67;;
35606;SDS011;21729;58.392;15.656;2022-12-18T14:21:45;5.93;;;3.03;;
35606;SDS011;21729;58.392;15.656;2022-12-18T14:24:14;4.93;;;2.83;;
35606;SDS011;21729;58.392;15.656;2022-12-18T14:26:43;5.57;;;3.03;;
35606;SDS011;21729;58.392;15.656;2022-12-18T14:29:18;4.50;;;2.90;;
35606;SDS011;21729;58.392;15.656;2022-12-18T14:34:37;4.55;;;2.83;;
35606;SDS011;21729;58.392;15.656;2022-12-18T14:37:04;6.28;;;2.70;;
35606;SDS011;21729;58.392;15.656;2022-12-18T14:39:33;5.97;;;3.00;;
35606;SDS011;21729;58.392;15.656;2022-12-18T14:42:00;7.72;;;3.33;;
35606;SDS011;21729;58.392;15.656;2022-12-18T14:44:28;5.80;;;2.83;;
35606;SDS011;21729;58.392;15.656;2022-12-18T14:46:55;5.50;;;3.03;;
35606;SDS011;21729;58.392;15.656;2022-12-18T14:49:24;5.90;;;2.97;;
35606;SDS011;21729;58.392;15.656;2022-12-18T14:51:53;5.10;;;2.90;;
35606;SDS011;21729;58.392;15.656;2022-12-18T14:54:22;5.63;;;2.88;;
35606;SDS011;21729;58.392;15.656;2022-12-18T14:56:54;4.95;;;3.05;;
35606;SDS011;21729;58.392;15.656;2022-12-18T14:59:25;6.47;;;2.72;;